createdAt,value
2022-12-22T00:01:31.725Z,99990.38
2022-12-22T00:04:15.302Z,99989.78
2022-12-22T00:06:58.504Z,99985.50
2022-12-22T00:09:41.391Z,99983.44
2022-12-22T00:12:26.381Z,99982.59
2022-12-22T00:15:12.136Z,99974.13
2022-12-22T00:17:55.145Z,99977.94
2022-12-22T00:20:38.127Z,99972.66
2022-12-22T00:23:21.164Z,99971.91
2022-12-22T00:26:04.026Z,99971.75
2022-12-22T00:28:47.854Z,99958.97
2022-12-22T00:31:34.545Z,99962.03
2022-12-22T00:34:17.531Z,99952.88
2022-12-22T00:37:00.891Z,99957.16
2022-12-22T00:39:43.805Z,99947.59
2022-12-22T00:42:26.971Z,99949.19
2022-12-22T00:45:09.982Z,99948.75
2022-12-22T00:47:56.514Z,99948.28
2022-12-22T00:50:45.794Z,99943.28
2022-12-22T00:53:28.720Z,99937.38
2022-12-22T00:56:11.799Z,99928.50
2022-12-22T00:58:55.003Z,99909.41
2022-12-22T01:01:38.140Z,99924.50
2022-12-22T01:04:25.451Z,99922.56
2022-12-22T01:07:08.512Z,99912.06
2022-12-22T01:09:51.717Z,99918.28
2022-12-22T01:12:37.091Z,99897.03
2022-12-22T01:15:26.679Z,99923.41
2022-12-22T01:18:09.525Z,99920.59
2022-12-22T01:20:55.082Z,99917.63
2022-12-22T01:23:38.007Z,99901.88
2022-12-22T01:26:25.420Z,99909.78
2022-12-22T01:29:08.313Z,99914.94
2022-12-22T01:31:51.301Z,99904.44
2022-12-22T01:34:34.182Z,99909.88
2022-12-22T01:37:19.657Z,99898.69
2022-12-22T01:40:02.502Z,99889.53
2022-12-22T01:42:48.268Z,99895.72
2022-12-22T01:45:37.884Z,99888.81
2022-12-22T01:48:23.203Z,99895.66
2022-12-22T01:51:06.312Z,99889.03
2022-12-22T01:53:51.805Z,99891.41
2022-12-22T01:56:34.776Z,99879.34
2022-12-22T01:59:19.905Z,99882.19
2022-12-22T02:02:03.487Z,99876.59
2022-12-22T02:04:51.051Z,99880.47
2022-12-22T02:07:48.847Z,99884.47
2022-12-22T02:10:50.813Z,99878.28
2022-12-22T02:13:42.666Z,99880.81
2022-12-22T02:16:31.486Z,99869.28
2022-12-22T02:19:22.886Z,99868.25
2022-12-22T02:22:16.910Z,99869.41
2022-12-22T02:25:05.463Z,99860.25
2022-12-22T02:27:54.679Z,99859.66
2022-12-22T02:30:37.626Z,99855.22
2022-12-22T02:33:20.545Z,99849.75
2022-12-22T02:36:14.422Z,99837.78
2022-12-22T02:39:05.134Z,99835.06
2022-12-22T02:41:58.463Z,99834.59
2022-12-22T02:44:55.232Z,99820.56
2022-12-22T02:47:46.256Z,99821.69
2022-12-22T02:50:35.748Z,99823.19
2022-12-22T02:53:21.345Z,99828.22
2022-12-22T02:56:04.420Z,99826.72
2022-12-22T02:58:48.860Z,99817.88
2022-12-22T03:01:35.490Z,99816.63
2022-12-22T03:04:18.710Z,99804.81
2022-12-22T03:07:01.707Z,99805.34
2022-12-22T03:09:44.708Z,99805.66
2022-12-22T03:12:27.798Z,99801.34
2022-12-22T03:15:10.916Z,99799.38
2022-12-22T03:17:56.570Z,99807.31
2022-12-22T03:20:39.522Z,99808.34
2022-12-22T03:23:23.064Z,99795.03
2022-12-22T03:25:54.227Z,99794.31
2022-12-22T03:28:26.039Z,99789.13
2022-12-22T03:30:58.644Z,99781.47
2022-12-22T03:33:33.115Z,99779.31
2022-12-22T03:36:03.500Z,99777.91
2022-12-22T03:38:34.167Z,99771.00
2022-12-22T03:41:04.795Z,99774.25
2022-12-22T03:43:47.730Z,99768.50
2022-12-22T03:46:35.411Z,99740.13
2022-12-22T03:49:14.199Z,99755.47
2022-12-22T03:51:47.618Z,99752.19
2022-12-22T03:54:20.471Z,99736.97
2022-12-22T03:56:52.453Z,99745.91
2022-12-22T03:59:23.303Z,99739.41
2022-12-22T04:01:56.471Z,99729.50
2022-12-22T04:04:30.470Z,99731.25
2022-12-22T04:07:01.229Z,99734.53
2022-12-22T04:09:31.869Z,99732.13
2022-12-22T04:12:29.911Z,99726.59
2022-12-22T04:15:00.427Z,99728.72
2022-12-22T04:17:30.944Z,99731.09
2022-12-22T04:20:04.024Z,99727.97
2022-12-22T04:22:34.682Z,99727.47
2022-12-22T04:25:05.220Z,99718.72
2022-12-22T04:27:35.890Z,99712.06
2022-12-22T04:30:07.124Z,99711.81
2022-12-22T04:32:38.305Z,99711.69
2022-12-22T04:35:12.383Z,99716.72
2022-12-22T04:37:43.067Z,99711.50
2022-12-22T04:40:14.150Z,99712.75
2022-12-22T04:42:46.709Z,99708.63
2022-12-22T04:45:17.448Z,99716.41
2022-12-22T04:47:48.126Z,99707.75
2022-12-22T04:50:21.457Z,99705.13
2022-12-22T04:52:52.049Z,99695.56
2022-12-22T04:55:22.651Z,99684.53
2022-12-22T04:57:53.219Z,99681.13
2022-12-22T05:00:23.967Z,99665.69
2022-12-22T05:02:55.929Z,99671.84
2022-12-22T05:05:29.109Z,99671.84
2022-12-22T05:07:59.538Z,99660.03
2022-12-22T05:10:30.543Z,99655.16
2022-12-22T05:13:01.402Z,99609.19
2022-12-22T05:15:34.121Z,99653.16
2022-12-22T05:18:05.019Z,99650.78
2022-12-22T05:20:38.791Z,99650.53
2022-12-22T05:23:10.480Z,99646.13
2022-12-22T05:25:40.870Z,99639.59
2022-12-22T05:28:11.271Z,99639.47
2022-12-22T05:30:43.652Z,99636.38
2022-12-22T05:33:14.135Z,99639.00
2022-12-22T05:35:47.225Z,99638.22
2022-12-22T05:38:17.652Z,99633.09
2022-12-22T05:40:48.085Z,99630.34
2022-12-22T05:43:18.687Z,99593.00
2022-12-22T05:45:49.885Z,99636.38
2022-12-22T05:48:26.741Z,99602.72
2022-12-22T05:51:02.048Z,99614.50
2022-12-22T05:53:32.593Z,99619.53
2022-12-22T05:56:02.966Z,99604.97
2022-12-22T05:58:33.736Z,99622.81
2022-12-22T06:01:04.621Z,99600.47
2022-12-22T06:03:35.330Z,99605.13
2022-12-22T06:06:09.213Z,99613.50
2022-12-22T06:08:39.759Z,99609.50
2022-12-22T06:11:10.373Z,99607.09
2022-12-22T06:13:41.018Z,99602.25
2022-12-22T06:16:11.766Z,99605.00
2022-12-22T06:18:42.383Z,99596.59
2022-12-22T06:21:15.723Z,99592.56
2022-12-22T06:23:46.128Z,99593.69
2022-12-22T06:26:16.565Z,99587.81
2022-12-22T06:28:47.123Z,99581.03
2022-12-22T06:31:17.659Z,99580.03
2022-12-22T06:33:48.344Z,99592.56
2022-12-22T06:36:21.448Z,99577.00
2022-12-22T06:38:51.964Z,99587.03
2022-12-22T06:41:42.530Z,99591.09
2022-12-22T06:44:10.400Z,99580.88
2022-12-22T06:46:41.143Z,99587.69
2022-12-22T06:49:11.751Z,99567.13
2022-12-22T06:51:45.495Z,99573.78
2022-12-22T06:54:19.579Z,99564.34
2022-12-22T06:56:54.744Z,99575.41
2022-12-22T06:59:25.193Z,99558.56
2022-12-22T07:01:55.712Z,99564.09
2022-12-22T07:04:26.276Z,99567.38
2022-12-22T07:06:59.331Z,99564.97
2022-12-22T07:09:29.788Z,99575.25
2022-12-22T07:12:00.359Z,99567.00
2022-12-22T07:14:30.728Z,99573.38
2022-12-22T07:17:01.240Z,99573.25
2022-12-22T07:19:31.708Z,99565.22
2022-12-22T07:22:04.784Z,99558.22
2022-12-22T07:24:35.299Z,99576.03
2022-12-22T07:27:05.891Z,99574.38
2022-12-22T07:29:36.777Z,99575.38
2022-12-22T07:32:07.655Z,99576.88
2022-12-22T07:35:00.082Z,99579.28
2022-12-22T07:37:56.384Z,99576.88
2022-12-22T07:40:27.136Z,99578.16
2022-12-22T07:43:16.241Z,99575.88
2022-12-22T07:45:46.612Z,99572.88
2022-12-22T07:48:29.407Z,99568.75
2022-12-22T07:51:06.425Z,99570.25
2022-12-22T07:53:39.791Z,99566.19
2022-12-22T07:56:11.105Z,99559.81
2022-12-22T07:58:41.607Z,99557.31
2022-12-22T08:01:31.478Z,99559.44
2022-12-22T08:04:02.145Z,99552.69
2022-12-22T08:06:32.590Z,99570.47
2022-12-22T08:09:07.489Z,99570.88
2022-12-22T08:11:38.134Z,99565.34
2022-12-22T08:14:08.882Z,99566.47
2022-12-22T08:16:39.690Z,99568.34
2022-12-22T08:19:11.628Z,99563.34
2022-12-22T08:21:46.784Z,99569.88
2022-12-22T08:24:25.098Z,99560.66
2022-12-22T08:26:58.527Z,99570.97
2022-12-22T08:29:51.543Z,99565.47
2022-12-22T08:32:22.612Z,99579.63
2022-12-22T08:34:54.437Z,99573.84
2022-12-22T08:37:29.237Z,99570.72
2022-12-22T08:40:07.687Z,99561.28
2022-12-22T08:42:38.288Z,99561.06
2022-12-22T08:45:27.242Z,99568.09
2022-12-22T08:47:58.010Z,99575.72
2022-12-22T08:50:28.751Z,99577.34
2022-12-22T08:53:05.148Z,99576.63
2022-12-22T08:55:38.310Z,99575.97
2022-12-22T08:58:10.429Z,99569.19
2022-12-22T09:00:41.030Z,99575.97
2022-12-22T09:03:11.652Z,99588.91
2022-12-22T09:05:42.607Z,99579.88
2022-12-22T09:08:13.329Z,99576.13
2022-12-22T09:10:47.568Z,99585.88
2022-12-22T09:13:18.411Z,99575.47
2022-12-22T09:15:49.529Z,99586.78
2022-12-22T09:18:20.355Z,99595.06
2022-12-22T09:20:50.700Z,99586.50
2022-12-22T09:23:21.089Z,99594.53
2022-12-22T09:25:54.502Z,99590.91
2022-12-22T09:28:24.935Z,99598.84
2022-12-22T09:30:56.531Z,99598.56
2022-12-22T09:33:27.032Z,99597.19
2022-12-22T09:35:57.729Z,99602.34
2022-12-22T09:38:40.664Z,99612.25
2022-12-22T09:41:20.734Z,99602.56
2022-12-22T09:43:51.502Z,99618.78
2022-12-22T09:46:25.334Z,99614.75
2022-12-22T09:48:56.878Z,99617.50
2022-12-22T09:51:27.803Z,99618.16
2022-12-22T09:54:01.976Z,99622.69
2022-12-22T09:56:35.073Z,99613.63
2022-12-22T09:59:11.618Z,99608.25
2022-12-22T10:02:06.743Z,99616.25
2022-12-22T10:04:55.973Z,99614.75
2022-12-22T10:07:33.067Z,99629.59
2022-12-22T10:10:09.355Z,99618.88
2022-12-22T10:12:42.351Z,99610.50
2022-12-22T10:15:21.472Z,99630.09
2022-12-22T10:17:54.267Z,99629.72
2022-12-22T10:20:28.290Z,99634.41
2022-12-22T10:23:06.981Z,99637.13
2022-12-22T10:28:39.651Z,99611.16
2022-12-22T10:31:19.993Z,99625.34
2022-12-22T10:33:52.711Z,99627.75
2022-12-22T10:36:27.212Z,99632.13
2022-12-22T10:39:02.251Z,99628.09
2022-12-22T10:41:37.684Z,99640.03
2022-12-22T10:44:13.438Z,99634.66
2022-12-22T10:46:46.925Z,99636.00
2022-12-22T10:49:22.034Z,99625.50
2022-12-22T10:51:56.921Z,99648.69
2022-12-22T10:54:30.504Z,99650.81
2022-12-22T10:57:28.665Z,99658.25
2022-12-22T11:00:03.200Z,99670.28
2022-12-22T11:02:40.548Z,99669.44
2022-12-22T11:05:12.922Z,99680.59
2022-12-22T11:07:45.101Z,99668.28
2022-12-22T11:10:21.323Z,99689.16
2022-12-22T11:13:17.127Z,99688.53
2022-12-22T11:15:58.518Z,99696.06
2022-12-22T11:18:56.228Z,99693.66
2022-12-22T11:21:38.784Z,99678.22
2022-12-22T11:24:25.581Z,99696.66
2022-12-22T11:27:09.164Z,99704.81
2022-12-22T11:30:02.813Z,99703.97
2022-12-22T11:33:05.214Z,99706.09
2022-12-22T11:35:53.972Z,99699.69
2022-12-22T11:38:36.693Z,99679.88
2022-12-22T11:41:19.627Z,99710.72
2022-12-22T11:44:05.719Z,99700.94
2022-12-22T11:46:46.307Z,99698.19
2022-12-22T11:49:45.244Z,99685.34
2022-12-22T11:52:33.278Z,99702.56
2022-12-22T11:55:16.682Z,99711.50
2022-12-22T11:57:58.700Z,99720.56
2022-12-22T12:01:03.709Z,99718.53
2022-12-22T12:03:51.215Z,99733.81
2022-12-22T12:06:43.337Z,99718.78
2022-12-22T12:09:36.040Z,99724.78
2022-12-22T12:12:18.718Z,99726.94
2022-12-22T12:15:01.747Z,99730.72
2022-12-22T12:17:49.104Z,99731.84
2022-12-22T12:20:37.075Z,99747.28
2022-12-22T12:23:22.797Z,99749.44
2022-12-22T12:26:01.307Z,99751.94
2022-12-22T12:28:44.083Z,99748.06
2022-12-22T12:31:22.893Z,99742.03
2022-12-22T12:34:01.123Z,99752.97
2022-12-22T12:36:42.334Z,99755.72
2022-12-22T12:39:21.689Z,99760.84
2022-12-22T12:42:01.715Z,99763.25
2022-12-22T12:44:36.887Z,99730.97
2022-12-22T12:47:22.991Z,99764.75
2022-12-22T12:50:17.930Z,99786.25
2022-12-22T12:53:18.965Z,99793.94
2022-12-22T12:56:03.530Z,99794.28
2022-12-22T12:58:58.889Z,99803.81
2022-12-22T13:02:00.818Z,99797.44
2022-12-22T13:05:01.722Z,99804.34
2022-12-22T13:08:02.158Z,99796.19
2022-12-22T13:10:33.615Z,99800.31
2022-12-22T13:13:07.562Z,99804.22
2022-12-22T13:15:40.671Z,99816.81
2022-12-22T13:18:47.440Z,99810.75
2022-12-22T13:24:29.163Z,99815.03
2022-12-22T13:27:06.943Z,99817.31
2022-12-22T13:29:51.015Z,99837.19
2022-12-22T13:32:28.949Z,99841.94
2022-12-22T13:37:58.285Z,99851.72
2022-12-22T13:40:31.086Z,99839.75
2022-12-22T13:43:05.859Z,99846.50
2022-12-22T13:45:44.291Z,99851.50
2022-12-22T13:48:19.759Z,99859.16
2022-12-22T13:50:53.336Z,99856.19
2022-12-22T13:56:25.667Z,99861.91
2022-12-22T13:59:00.275Z,99857.00
2022-12-22T14:01:33.785Z,99863.22
2022-12-22T14:04:07.968Z,99858.19
2022-12-22T14:06:39.867Z,99860.22
2022-12-22T14:09:18.379Z,99865.78
2022-12-22T14:11:53.263Z,99859.75
2022-12-22T14:14:29.489Z,99869.66
2022-12-22T14:17:03.396Z,99868.25
2022-12-22T14:19:37.183Z,99872.88
2022-12-22T14:22:11.010Z,99878.50
2022-12-22T14:24:47.419Z,99874.84
2022-12-22T14:27:25.566Z,99874.44
2022-12-22T14:29:56.303Z,99879.19
2022-12-22T14:32:50.678Z,99891.31
2022-12-22T14:35:31.832Z,99871.94
2022-12-22T14:38:21.775Z,99883.47
2022-12-22T14:40:57.396Z,99891.13
2022-12-22T14:43:33.274Z,99884.25
2022-12-22T14:46:08.547Z,99893.56
2022-12-22T14:48:48.339Z,99898.28
2022-12-22T14:51:20.085Z,99896.13
2022-12-22T14:53:54.559Z,99896.88
2022-12-22T14:56:25.681Z,99905.75
2022-12-22T14:59:11.417Z,99889.72
2022-12-22T15:01:42.632Z,99909.19
2022-12-22T15:04:23.517Z,99907.88
2022-12-22T15:06:54.015Z,99911.00
2022-12-22T15:10:13.161Z,99915.72
2022-12-22T15:12:22.313Z,99917.81
2022-12-22T15:14:52.991Z,99918.13
2022-12-22T15:17:25.743Z,99932.13
2022-12-22T15:20:01.923Z,99929.66
2022-12-22T15:22:32.595Z,99941.47
2022-12-22T15:25:03.099Z,99939.81
2022-12-22T15:27:33.621Z,99949.72
2022-12-22T15:30:04.065Z,99943.66
2022-12-22T15:32:37.962Z,99946.78
2022-12-22T15:35:18.029Z,99953.28
2022-12-22T15:37:48.638Z,99953.88
2022-12-22T15:40:21.563Z,99947.69
2022-12-22T15:42:52.949Z,99959.34
2022-12-22T15:45:25.326Z,99953.31
2022-12-22T15:47:57.451Z,99954.78
2022-12-22T15:50:38.774Z,99951.38
2022-12-22T15:53:12.018Z,99937.28
2022-12-22T15:55:44.879Z,99929.91
2022-12-22T15:58:17.910Z,99953.94
2022-12-22T16:00:48.988Z,99936.91
2022-12-22T16:03:19.563Z,99961.00
2022-12-22T16:05:53.436Z,99967.34
2022-12-22T16:08:29.660Z,99975.75
2022-12-22T16:11:00.625Z,99987.13
2022-12-22T16:13:31.259Z,99975.31
2022-12-22T16:16:02.677Z,99973.44
2022-12-22T16:18:33.069Z,99972.41
2022-12-22T16:21:09.664Z,99980.50
2022-12-22T16:23:40.462Z,99983.56
2022-12-22T16:26:18.175Z,99971.69
2022-12-22T16:28:49.530Z,99967.38
2022-12-22T16:31:22.827Z,99969.31
2022-12-22T16:33:54.174Z,99951.19
2022-12-22T16:36:27.691Z,99951.91
2022-12-22T16:38:58.197Z,99960.19
2022-12-22T16:41:28.770Z,99957.06
2022-12-22T16:44:05.730Z,99963.72
2022-12-22T16:46:39.801Z,99953.97
2022-12-22T16:49:11.860Z,99946.47
2022-12-22T16:51:49.915Z,99940.13
2022-12-22T16:54:20.679Z,99953.66
2022-12-22T16:56:51.993Z,99945.88
2022-12-22T16:59:22.833Z,99923.66
2022-12-22T17:01:55.880Z,99945.44
2022-12-22T17:04:31.181Z,99931.31
2022-12-22T17:07:05.423Z,99946.91
2022-12-22T17:09:37.260Z,99944.84
2022-12-22T17:12:08.708Z,99940.59
2022-12-22T17:14:41.387Z,99936.03
2022-12-22T17:17:17.648Z,99933.41
2022-12-22T17:19:48.278Z,99926.63
2022-12-22T17:22:26.589Z,99931.47
2022-12-22T17:24:59.621Z,99941.34
2022-12-22T17:27:33.399Z,99933.72
2022-12-22T17:30:05.991Z,99938.72
2022-12-22T17:32:36.551Z,99939.31
2022-12-22T17:35:07.817Z,99942.38
2022-12-22T17:37:42.139Z,99943.13
2022-12-22T17:40:16.404Z,99942.84
2022-12-22T17:42:46.983Z,99946.38
2022-12-22T17:45:19.004Z,99937.69
2022-12-22T17:47:50.252Z,99932.19
2022-12-22T17:50:24.020Z,99938.25
2022-12-22T17:52:57.429Z,99907.66
2022-12-22T17:56:06.715Z,99935.00
2022-12-22T17:58:20.789Z,99927.97
2022-12-22T18:00:51.629Z,99913.81
2022-12-22T18:03:22.582Z,99920.44
2022-12-22T18:05:55.153Z,99915.56
2022-12-22T18:08:28.457Z,99901.56
2022-12-22T18:10:58.942Z,99907.88
2022-12-22T18:13:29.679Z,99912.13
2022-12-22T18:16:00.271Z,99923.31
2022-12-22T18:18:31.861Z,99909.75
2022-12-22T18:21:06.233Z,99900.00
2022-12-22T18:23:47.782Z,99865.31
2022-12-22T18:26:24.472Z,99901.34
2022-12-22T18:28:55.926Z,99902.09
2022-12-22T18:31:27.752Z,99899.16
2022-12-22T18:33:58.347Z,99891.78
2022-12-22T18:36:32.615Z,99894.00
2022-12-22T18:39:07.572Z,99887.53
2022-12-22T18:41:40.929Z,99883.22
2022-12-22T18:44:18.032Z,99881.47
2022-12-22T18:46:49.812Z,99884.72
2022-12-22T18:49:20.557Z,99885.88
2022-12-22T18:51:51.039Z,99882.06
2022-12-22T18:54:32.486Z,99878.03
2022-12-22T18:57:02.996Z,99873.19
2022-12-22T18:59:33.735Z,99861.97
2022-12-22T19:02:07.311Z,99864.00
2022-12-22T19:04:37.815Z,99863.41
2022-12-22T19:07:08.447Z,99866.06
2022-12-22T19:09:42.813Z,99861.94
2022-12-22T19:12:14.883Z,99856.63
2022-12-22T19:14:47.569Z,99831.66
2022-12-22T19:17:18.248Z,99822.56
2022-12-22T19:19:48.867Z,99855.03
2022-12-22T19:22:19.689Z,99852.84
2022-12-22T19:24:57.470Z,99851.63
2022-12-22T19:27:30.119Z,99847.16
2022-12-22T19:30:04.526Z,99837.16
2022-12-22T19:32:46.129Z,99831.38
2022-12-22T19:35:20.382Z,99833.56
2022-12-22T19:37:52.627Z,99837.38
2022-12-22T19:40:30.763Z,99833.78
2022-12-22T19:43:02.489Z,99830.81
2022-12-22T19:45:36.902Z,99830.66
2022-12-22T19:48:17.669Z,99826.94
2022-12-22T19:50:49.437Z,99824.69
2022-12-22T19:53:20.463Z,99826.34
2022-12-22T19:55:57.093Z,99820.69
2022-12-22T19:58:30.399Z,99822.81
2022-12-22T20:01:01.537Z,99794.56
2022-12-22T20:03:32.255Z,99825.31
2022-12-22T20:06:02.945Z,99815.13
2022-12-22T20:08:33.591Z,99811.63
2022-12-22T20:11:06.750Z,99801.59
2022-12-22T20:13:37.519Z,99794.94
2022-12-22T20:16:08.940Z,99795.84
2022-12-22T20:18:39.491Z,99809.25
2022-12-22T20:21:14.793Z,99798.94
2022-12-22T20:23:45.898Z,99784.53
2022-12-22T20:26:25.024Z,99790.41
2022-12-22T20:28:57.025Z,99783.34
2022-12-22T20:31:28.986Z,99779.81
2022-12-22T20:34:01.319Z,99776.78
2022-12-22T20:36:33.015Z,99764.41
2022-12-22T20:39:04.500Z,99772.81
2022-12-22T20:41:37.685Z,99768.09
2022-12-22T20:44:08.250Z,99772.56
2022-12-22T20:46:39.227Z,99761.38
2022-12-22T20:49:17.913Z,99768.16
2022-12-22T20:51:48.808Z,99725.88
2022-12-22T20:54:19.803Z,99763.25
2022-12-22T20:56:52.953Z,99764.28
2022-12-22T20:59:25.480Z,99754.56
2022-12-22T21:01:56.501Z,99755.97
2022-12-22T21:04:27.244Z,99730.34
2022-12-22T21:07:00.029Z,99747.38
2022-12-22T21:09:30.709Z,99746.78
2022-12-22T21:12:03.756Z,99739.72
2022-12-22T21:14:34.358Z,99740.94
2022-12-22T21:17:04.946Z,99735.38
2022-12-22T21:19:36.404Z,99746.50
2022-12-22T21:22:07.050Z,99746.19
2022-12-22T21:24:37.621Z,99732.41
2022-12-22T21:27:20.046Z,99731.66
2022-12-22T21:29:50.783Z,99731.66
2022-12-22T21:32:21.263Z,99723.53
2022-12-22T21:34:51.970Z,99729.56
2022-12-22T21:37:23.094Z,99723.53
2022-12-22T21:39:53.580Z,99699.28
2022-12-22T21:42:26.567Z,99713.84
2022-12-22T21:44:57.141Z,99706.66
2022-12-22T21:47:27.720Z,99706.78
2022-12-22T21:49:58.135Z,99705.03
2022-12-22T21:52:28.710Z,99698.47
2022-12-22T21:54:59.280Z,99702.88
2022-12-22T21:57:32.356Z,99688.44
2022-12-22T22:00:02.819Z,99689.94
2022-12-22T22:02:35.704Z,99685.94
2022-12-22T22:05:06.445Z,99690.75
2022-12-22T22:07:36.988Z,99680.00
2022-12-22T22:10:08.718Z,99680.00
2022-12-22T22:12:41.754Z,99679.13
2022-12-22T22:15:14.095Z,99682.50
2022-12-22T22:17:45.981Z,99663.06
2022-12-22T22:20:18.899Z,99656.78
2022-12-22T22:22:50.703Z,99666.66
2022-12-22T22:25:22.257Z,99655.75
2022-12-22T22:27:55.541Z,99654.88
2022-12-22T22:30:27.711Z,99647.84
2022-12-22T22:32:59.151Z,99638.63
2022-12-22T22:35:30.371Z,99638.75
2022-12-22T22:38:00.861Z,99640.78
2022-12-22T22:40:31.516Z,99636.66
2022-12-22T22:43:04.608Z,99622.00
2022-12-22T22:45:38.110Z,99632.25
2022-12-22T22:48:16.562Z,99633.28
2022-12-22T22:50:51.485Z,99632.56
2022-12-22T22:53:25.627Z,99623.09
2022-12-22T22:56:00.102Z,99633.59
2022-12-22T22:58:34.117Z,99629.25
2022-12-22T23:01:08.678Z,99594.31
2022-12-22T23:03:40.318Z,99612.44
2022-12-22T23:06:15.176Z,99610.34
2022-12-22T23:08:45.822Z,99610.25
2022-12-22T23:11:17.658Z,99604.63
2022-12-22T23:13:50.795Z,99592.34
2022-12-22T23:16:21.787Z,99613.94
2022-12-22T23:18:54.739Z,99603.75
2022-12-22T23:21:26.177Z,99581.19
2022-12-22T23:24:00.796Z,99596.66
2022-12-22T23:26:31.296Z,99595.75
2022-12-22T23:29:04.576Z,99590.38
2022-12-22T23:31:35.561Z,99582.09
2022-12-22T23:34:06.671Z,99539.78
2022-12-22T23:36:37.478Z,99575.81
2022-12-22T23:39:08.052Z,99574.16
2022-12-22T23:41:38.578Z,99568.06
2022-12-22T23:44:12.082Z,99564.06
2022-12-22T23:46:43.280Z,99568.84
2022-12-22T23:49:16.398Z,99579.66
2022-12-22T23:51:47.155Z,99571.00
2022-12-22T23:54:17.623Z,99576.06
2022-12-22T23:56:48.071Z,99571.34
2022-12-22T23:59:21.109Z,99574.50
